sensor_id;sensor_type;location;lat;lon;timestamp;P1;durP1;ratioP1;P2;durP2;ratioP2
26512;SDS011;14186;53.822;10.152;2023-01-04T00:01:22;7.97;;;4.53;;
26512;SDS011;14186;53.822;10.152;2023-01-04T00:06:22;11.60;;;4.43;;
26512;SDS011;14186;53.822;10.152;2023-01-04T00:11:22;7.57;;;3.75;;
26512;SDS011;14186;53.822;10.152;2023-01-04T00:16:24;8.65;;;3.75;;
26512;SDS011;14186;53.822;10.152;2023-01-04T00:21:26;6.85;;;3.35;;
26512;SDS011;14186;53.822;10.152;2023-01-04T00:26:27;6.47;;;2.92;;
26512;SDS011;14186;53.822;10.152;2023-01-04T00:31:28;9.85;;;2.80;;
26512;SDS011;14186;53.822;10.152;2023-01-04T00:36:29;6.82;;;2.40;;
26512;SDS011;14186;53.822;10.152;2023-01-04T00:41:29;6.15;;;2.42;;
26512;SDS011;14186;53.822;10.152;2023-01-04T00:46:31;5.00;;;2.58;;
26512;SDS011;14186;53.822;10.152;2023-01-04T00:51:31;7.93;;;2.22;;
26512;SDS011;14186;53.822;10.152;2023-01-04T00:56:32;5.53;;;1.85;;
26512;SDS011;14186;53.822;10.152;2023-01-04T01:01:34;6.20;;;1.88;;
26512;SDS011;14186;53.822;10.152;2023-01-04T01:06:34;7.10;;;2.10;;
26512;SDS011;14186;53.822;10.152;2023-01-04T01:11:34;5.45;;;1.58;;
26512;SDS011;14186;53.822;10.152;2023-01-04T01:16:35;4.45;;;1.52;;
26512;SDS011;14186;53.822;10.152;2023-01-04T01:21:36;3.97;;;1.40;;
26512;SDS011;14186;53.822;10.152;2023-01-04T01:26:36;5.68;;;1.40;;
26512;SDS011;14186;53.822;10.152;2023-01-04T01:31:38;4.20;;;1.65;;
26512;SDS011;14186;53.822;10.152;2023-01-04T01:36:39;3.80;;;1.27;;
26512;SDS011;14186;53.822;10.152;2023-01-04T01:41:39;4.03;;;1.33;;
26512;SDS011;14186;53.822;10.152;2023-01-04T01:46:41;5.45;;;1.25;;
26512;SDS011;14186;53.822;10.152;2023-01-04T01:51:42;4.70;;;1.23;;
26512;SDS011;14186;53.822;10.152;2023-01-04T01:56:43;6.05;;;1.70;;
26512;SDS011;14186;53.822;10.152;2023-01-04T02:01:46;3.60;;;1.08;;
26512;SDS011;14186;53.822;10.152;2023-01-04T02:06:47;5.00;;;1.27;;
26512;SDS011;14186;53.822;10.152;2023-01-04T02:11:48;6.68;;;1.40;;
26512;SDS011;14186;53.822;10.152;2023-01-04T02:16:54;4.43;;;0.90;;
26512;SDS011;14186;53.822;10.152;2023-01-04T02:22:00;2.00;;;0.85;;
26512;SDS011;14186;53.822;10.152;2023-01-04T02:32:28;5.45;;;1.15;;
26512;SDS011;14186;53.822;10.152;2023-01-04T02:37:34;4.57;;;1.20;;
26512;SDS011;14186;53.822;10.152;2023-01-04T02:42:38;3.58;;;0.82;;
26512;SDS011;14186;53.822;10.152;2023-01-04T02:47:41;3.25;;;1.00;;
26512;SDS011;14186;53.822;10.152;2023-01-04T02:52:41;2.72;;;0.98;;
26512;SDS011;14186;53.822;10.152;2023-01-04T02:57:42;4.60;;;1.27;;
26512;SDS011;14186;53.822;10.152;2023-01-04T03:02:55;5.80;;;1.20;;
26512;SDS011;14186;53.822;10.152;2023-01-04T03:07:57;5.25;;;0.85;;
26512;SDS011;14186;53.822;10.152;2023-01-04T03:13:01;3.88;;;1.25;;
26512;SDS011;14186;53.822;10.152;2023-01-04T03:18:08;3.25;;;0.82;;
26512;SDS011;14186;53.822;10.152;2023-01-04T03:23:09;5.57;;;1.85;;
26512;SDS011;14186;53.822;10.152;2023-01-04T03:28:11;2.85;;;0.85;;
26512;SDS011;14186;53.822;10.152;2023-01-04T03:33:14;2.25;;;0.70;;
26512;SDS011;14186;53.822;10.152;2023-01-04T03:38:16;3.47;;;1.10;;
26512;SDS011;14186;53.822;10.152;2023-01-04T03:43:18;5.82;;;1.10;;
26512;SDS011;14186;53.822;10.152;2023-01-04T03:48:21;4.72;;;1.17;;
26512;SDS011;14186;53.822;10.152;2023-01-04T03:53:24;3.40;;;1.08;;
26512;SDS011;14186;53.822;10.152;2023-01-04T03:58:24;2.65;;;1.05;;
26512;SDS011;14186;53.822;10.152;2023-01-04T04:03:27;6.55;;;1.20;;
26512;SDS011;14186;53.822;10.152;2023-01-04T04:08:27;3.58;;;0.95;;
26512;SDS011;14186;53.822;10.152;2023-01-04T04:13:27;3.92;;;1.05;;
26512;SDS011;14186;53.822;10.152;2023-01-04T04:18:29;5.82;;;1.33;;
26512;SDS011;14186;53.822;10.152;2023-01-04T04:23:29;2.70;;;0.95;;
26512;SDS011;14186;53.822;10.152;2023-01-04T04:28:29;4.38;;;1.02;;
26512;SDS011;14186;53.822;10.152;2023-01-04T04:33:31;5.35;;;1.25;;
26512;SDS011;14186;53.822;10.152;2023-01-04T04:38:31;8.00;;;1.00;;
26512;SDS011;14186;53.822;10.152;2023-01-04T04:43:32;3.58;;;1.13;;
26512;SDS011;14186;53.822;10.152;2023-01-04T04:48:33;5.93;;;1.30;;
26512;SDS011;14186;53.822;10.152;2023-01-04T04:53:34;2.42;;;0.90;;
26512;SDS011;14186;53.822;10.152;2023-01-04T04:58:34;6.95;;;1.42;;
26512;SDS011;14186;53.822;10.152;2023-01-04T05:03:36;4.13;;;1.30;;
26512;SDS011;14186;53.822;10.152;2023-01-04T05:08:36;4.03;;;1.10;;
26512;SDS011;14186;53.822;10.152;2023-01-04T05:13:36;6.40;;;1.52;;
26512;SDS011;14186;53.822;10.152;2023-01-04T05:18:38;5.95;;;1.33;;
26512;SDS011;14186;53.822;10.152;2023-01-04T05:23:38;5.47;;;1.30;;
26512;SDS011;14186;53.822;10.152;2023-01-04T05:28:38;3.67;;;1.10;;
26512;SDS011;14186;53.822;10.152;2023-01-04T05:33:40;6.35;;;1.70;;
26512;SDS011;14186;53.822;10.152;2023-01-04T05:38:40;6.68;;;1.55;;
26512;SDS011;14186;53.822;10.152;2023-01-04T05:43:40;3.25;;;1.13;;
26512;SDS011;14186;53.822;10.152;2023-01-04T05:48:41;5.03;;;1.60;;
26512;SDS011;14186;53.822;10.152;2023-01-04T05:53:42;8.23;;;1.90;;
26512;SDS011;14186;53.822;10.152;2023-01-04T05:58:42;3.88;;;1.20;;
26512;SDS011;14186;53.822;10.152;2023-01-04T06:03:43;5.10;;;1.48;;
26512;SDS011;14186;53.822;10.152;2023-01-04T06:08:43;3.60;;;1.13;;
26512;SDS011;14186;53.822;10.152;2023-01-04T06:13:44;4.30;;;1.40;;
26512;SDS011;14186;53.822;10.152;2023-01-04T06:18:45;2.58;;;1.02;;
26512;SDS011;14186;53.822;10.152;2023-01-04T06:23:45;3.03;;;1.40;;
26512;SDS011;14186;53.822;10.152;2023-01-04T06:28:46;2.35;;;0.93;;
26512;SDS011;14186;53.822;10.152;2023-01-04T06:33:47;1.77;;;1.00;;
26512;SDS011;14186;53.822;10.152;2023-01-04T06:38:47;2.08;;;1.05;;
26512;SDS011;14186;53.822;10.152;2023-01-04T06:43:48;4.00;;;1.00;;
26512;SDS011;14186;53.822;10.152;2023-01-04T06:48:49;3.55;;;1.25;;
26512;SDS011;14186;53.822;10.152;2023-01-04T06:53:49;2.42;;;0.85;;
26512;SDS011;14186;53.822;10.152;2023-01-04T06:58:49;2.60;;;1.02;;
26512;SDS011;14186;53.822;10.152;2023-01-04T07:03:51;2.63;;;1.30;;
26512;SDS011;14186;53.822;10.152;2023-01-04T07:08:51;3.08;;;1.10;;
26512;SDS011;14186;53.822;10.152;2023-01-04T07:13:51;2.13;;;0.75;;
26512;SDS011;14186;53.822;10.152;2023-01-04T07:18:53;5.05;;;1.52;;
26512;SDS011;14186;53.822;10.152;2023-01-04T07:23:53;2.50;;;0.80;;
26512;SDS011;14186;53.822;10.152;2023-01-04T07:28:53;2.28;;;1.00;;
26512;SDS011;14186;53.822;10.152;2023-01-04T07:33:55;3.22;;;1.08;;
26512;SDS011;14186;53.822;10.152;2023-01-04T07:38:55;2.17;;;0.85;;
26512;SDS011;14186;53.822;10.152;2023-01-04T07:43:55;2.13;;;1.08;;
26512;SDS011;14186;53.822;10.152;2023-01-04T07:48:57;3.72;;;1.73;;
26512;SDS011;14186;53.822;10.152;2023-01-04T07:53:57;2.88;;;1.60;;
26512;SDS011;14186;53.822;10.152;2023-01-04T07:58:57;4.57;;;1.95;;
26512;SDS011;14186;53.822;10.152;2023-01-04T08:03:59;4.15;;;2.30;;
26512;SDS011;14186;53.822;10.152;2023-01-04T08:08:59;3.97;;;2.38;;
26512;SDS011;14186;53.822;10.152;2023-01-04T08:14:00;4.70;;;2.50;;
26512;SDS011;14186;53.822;10.152;2023-01-04T08:19:02;4.43;;;2.67;;
26512;SDS011;14186;53.822;10.152;2023-01-04T08:24:03;4.38;;;2.97;;
26512;SDS011;14186;53.822;10.152;2023-01-04T08:29:03;5.20;;;3.05;;
26512;SDS011;14186;53.822;10.152;2023-01-04T08:34:06;7.63;;;3.83;;
26512;SDS011;14186;53.822;10.152;2023-01-04T08:39:06;6.20;;;4.00;;
26512;SDS011;14186;53.822;10.152;2023-01-04T08:44:06;6.50;;;4.07;;
26512;SDS011;14186;53.822;10.152;2023-01-04T08:49:08;6.10;;;3.92;;
26512;SDS011;14186;53.822;10.152;2023-01-04T08:54:08;5.75;;;3.47;;
26512;SDS011;14186;53.822;10.152;2023-01-04T08:59:09;8.68;;;4.55;;
26512;SDS011;14186;53.822;10.152;2023-01-04T09:04:11;5.25;;;3.60;;
26512;SDS011;14186;53.822;10.152;2023-01-04T09:09:11;6.65;;;4.00;;
26512;SDS011;14186;53.822;10.152;2023-01-04T09:14:11;6.13;;;3.67;;
26512;SDS011;14186;53.822;10.152;2023-01-04T09:19:13;5.00;;;3.17;;
26512;SDS011;14186;53.822;10.152;2023-01-04T09:24:14;4.38;;;2.92;;
26512;SDS011;14186;53.822;10.152;2023-01-04T09:29:14;5.97;;;3.20;;
26512;SDS011;14186;53.822;10.152;2023-01-04T09:34:15;4.30;;;2.60;;
26512;SDS011;14186;53.822;10.152;2023-01-04T09:39:16;3.42;;;2.40;;
26512;SDS011;14186;53.822;10.152;2023-01-04T09:44:16;2.90;;;1.95;;
26512;SDS011;14186;53.822;10.152;2023-01-04T09:49:21;3.25;;;2.10;;
26512;SDS011;14186;53.822;10.152;2023-01-04T09:54:22;2.97;;;1.73;;
26512;SDS011;14186;53.822;10.152;2023-01-04T09:59:27;2.08;;;1.58;;
26512;SDS011;14186;53.822;10.152;2023-01-04T10:04:34;2.58;;;1.30;;
26512;SDS011;14186;53.822;10.152;2023-01-04T10:09:35;2.50;;;1.30;;
26512;SDS011;14186;53.822;10.152;2023-01-04T10:14:45;2.03;;;1.30;;
26512;SDS011;14186;53.822;10.152;2023-01-04T10:19:53;3.50;;;1.20;;
26512;SDS011;14186;53.822;10.152;2023-01-04T10:24:58;1.65;;;1.13;;
26512;SDS011;14186;53.822;10.152;2023-01-04T10:30:02;1.40;;;1.00;;
26512;SDS011;14186;53.822;10.152;2023-01-04T10:35:15;2.35;;;0.80;;
26512;SDS011;14186;53.822;10.152;2023-01-04T10:40:16;2.03;;;1.20;;
26512;SDS011;14186;53.822;10.152;2023-01-04T10:45:17;3.03;;;0.82;;
26512;SDS011;14186;53.822;10.152;2023-01-04T10:50:21;1.20;;;0.70;;
26512;SDS011;14186;53.822;10.152;2023-01-04T11:00:25;0.93;;;0.57;;
26512;SDS011;14186;53.822;10.152;2023-01-04T11:05:28;1.77;;;0.70;;
26512;SDS011;14186;53.822;10.152;2023-01-04T11:10:30;0.73;;;0.60;;
26512;SDS011;14186;53.822;10.152;2023-01-04T11:15:33;1.00;;;0.60;;
26512;SDS011;14186;53.822;10.152;2023-01-04T11:20:35;2.15;;;0.70;;
26512;SDS011;14186;53.822;10.152;2023-01-04T11:25:43;0.77;;;0.77;;
26512;SDS011;14186;53.822;10.152;2023-01-04T11:30:47;2.33;;;1.00;;
26512;SDS011;14186;53.822;10.152;2023-01-04T11:35:50;1.00;;;0.90;;
26512;SDS011;14186;53.822;10.152;2023-01-04T11:40:55;2.97;;;1.02;;
26512;SDS011;14186;53.822;10.152;2023-01-04T11:46:00;1.17;;;1.08;;
26512;SDS011;14186;53.822;10.152;2023-01-04T11:51:01;2.13;;;1.10;;
26512;SDS011;14186;53.822;10.152;2023-01-04T11:56:14;1.58;;;1.13;;
26512;SDS011;14186;53.822;10.152;2023-01-04T12:01:18;1.20;;;0.85;;
26512;SDS011;14186;53.822;10.152;2023-01-04T12:06:19;2.65;;;1.00;;
26512;SDS011;14186;53.822;10.152;2023-01-04T12:11:23;5.70;;;0.80;;
26512;SDS011;14186;53.822;10.152;2023-01-04T12:16:27;1.00;;;0.80;;
26512;SDS011;14186;53.822;10.152;2023-01-04T12:21:33;2.22;;;0.80;;
26512;SDS011;14186;53.822;10.152;2023-01-04T12:26:40;0.77;;;0.73;;
26512;SDS011;14186;53.822;10.152;2023-01-04T12:31:40;0.88;;;0.63;;
26512;SDS011;14186;53.822;10.152;2023-01-04T12:36:56;1.42;;;0.80;;
26512;SDS011;14186;53.822;10.152;2023-01-04T12:52:37;0.57;;;0.50;;
26512;SDS011;14186;53.822;10.152;2023-01-04T12:57:38;0.63;;;0.60;;
26512;SDS011;14186;53.822;10.152;2023-01-04T13:02:38;1.30;;;0.73;;
26512;SDS011;14186;53.822;10.152;2023-01-04T13:07:41;1.30;;;0.90;;
26512;SDS011;14186;53.822;10.152;2023-01-04T13:12:50;1.55;;;0.70;;
26512;SDS011;14186;53.822;10.152;2023-01-04T13:17:53;2.45;;;0.47;;
26512;SDS011;14186;53.822;10.152;2023-01-04T13:22:55;2.50;;;0.50;;
26512;SDS011;14186;53.822;10.152;2023-01-04T13:27:57;1.15;;;0.50;;
26512;SDS011;14186;53.822;10.152;2023-01-04T13:32:57;1.38;;;0.45;;
26512;SDS011;14186;53.822;10.152;2023-01-04T13:37:59;1.55;;;0.45;;
26512;SDS011;14186;53.822;10.152;2023-01-04T13:43:11;4.07;;;0.60;;
26512;SDS011;14186;53.822;10.152;2023-01-04T13:48:16;1.23;;;0.50;;
26512;SDS011;14186;53.822;10.152;2023-01-04T13:53:19;3.30;;;0.65;;
26512;SDS011;14186;53.822;10.152;2023-01-04T13:58:20;5.60;;;1.27;;
26512;SDS011;14186;53.822;10.152;2023-01-04T14:03:24;6.13;;;0.75;;
26512;SDS011;14186;53.822;10.152;2023-01-04T14:08:28;1.87;;;0.60;;
26512;SDS011;14186;53.822;10.152;2023-01-04T14:13:30;6.43;;;1.27;;
26512;SDS011;14186;53.822;10.152;2023-01-04T14:18:30;9.52;;;1.15;;
26512;SDS011;14186;53.822;10.152;2023-01-04T14:23:33;3.75;;;0.73;;
26512;SDS011;14186;53.822;10.152;2023-01-04T14:28:34;3.45;;;1.00;;
26512;SDS011;14186;53.822;10.152;2023-01-04T14:33:37;4.78;;;0.70;;
26512;SDS011;14186;53.822;10.152;2023-01-04T14:38:40;7.35;;;0.98;;
26512;SDS011;14186;53.822;10.152;2023-01-04T14:43:44;8.88;;;1.48;;
26512;SDS011;14186;53.822;10.152;2023-01-04T14:48:45;6.85;;;1.05;;
26512;SDS011;14186;53.822;10.152;2023-01-04T14:53:46;6.75;;;1.23;;
26512;SDS011;14186;53.822;10.152;2023-01-04T14:58:46;7.30;;;1.48;;
26512;SDS011;14186;53.822;10.152;2023-01-04T15:03:46;9.05;;;1.33;;
26512;SDS011;14186;53.822;10.152;2023-01-04T15:08:48;8.02;;;1.60;;
26512;SDS011;14186;53.822;10.152;2023-01-04T15:13:48;5.70;;;1.20;;
26512;SDS011;14186;53.822;10.152;2023-01-04T15:18:48;7.63;;;1.73;;
26512;SDS011;14186;53.822;10.152;2023-01-04T15:23:50;6.03;;;1.00;;
26512;SDS011;14186;53.822;10.152;2023-01-04T15:28:50;9.13;;;2.38;;
26512;SDS011;14186;53.822;10.152;2023-01-04T15:33:50;12.90;;;2.22;;
26512;SDS011;14186;53.822;10.152;2023-01-04T15:38:53;11.77;;;2.60;;
26512;SDS011;14186;53.822;10.152;2023-01-04T15:43:53;16.50;;;2.85;;
26512;SDS011;14186;53.822;10.152;2023-01-04T15:48:54;8.27;;;1.88;;
26512;SDS011;14186;53.822;10.152;2023-01-04T15:53:55;14.02;;;2.22;;
26512;SDS011;14186;53.822;10.152;2023-01-04T15:58:55;12.10;;;1.98;;
26512;SDS011;14186;53.822;10.152;2023-01-04T16:03:56;17.27;;;2.95;;
26512;SDS011;14186;53.822;10.152;2023-01-04T16:08:57;9.65;;;1.90;;
26512;SDS011;14186;53.822;10.152;2023-01-04T16:13:57;11.55;;;2.42;;
26512;SDS011;14186;53.822;10.152;2023-01-04T16:18:57;13.43;;;3.08;;
26512;SDS011;14186;53.822;10.152;2023-01-04T16:23:59;10.38;;;1.55;;
26512;SDS011;14186;53.822;10.152;2023-01-04T16:28:59;16.02;;;1.90;;
26512;SDS011;14186;53.822;10.152;2023-01-04T16:33:59;13.65;;;1.65;;
26512;SDS011;14186;53.822;10.152;2023-01-04T16:39:01;8.02;;;1.60;;
26512;SDS011;14186;53.822;10.152;2023-01-04T16:44:02;10.85;;;1.77;;
26512;SDS011;14186;53.822;10.152;2023-01-04T16:49:04;10.80;;;1.80;;
26512;SDS011;14186;53.822;10.152;2023-01-04T16:54:07;11.48;;;1.80;;
26512;SDS011;14186;53.822;10.152;2023-01-04T16:59:08;17.23;;;5.75;;
26512;SDS011;14186;53.822;10.152;2023-01-04T17:04:10;13.75;;;1.98;;
26512;SDS011;14186;53.822;10.152;2023-01-04T17:09:13;16.73;;;1.70;;
26512;SDS011;14186;53.822;10.152;2023-01-04T17:14:13;14.50;;;1.77;;
26512;SDS011;14186;53.822;10.152;2023-01-04T17:19:13;12.15;;;1.85;;
26512;SDS011;14186;53.822;10.152;2023-01-04T17:24:15;14.52;;;3.28;;
26512;SDS011;14186;53.822;10.152;2023-01-04T17:29:15;9.60;;;1.67;;
26512;SDS011;14186;53.822;10.152;2023-01-04T17:34:15;16.85;;;2.25;;
26512;SDS011;14186;53.822;10.152;2023-01-04T17:39:16;11.93;;;1.80;;
26512;SDS011;14186;53.822;10.152;2023-01-04T17:44:17;13.02;;;2.05;;
26512;SDS011;14186;53.822;10.152;2023-01-04T17:49:17;16.30;;;2.50;;
26512;SDS011;14186;53.822;10.152;2023-01-04T17:54:19;15.23;;;2.67;;
26512;SDS011;14186;53.822;10.152;2023-01-04T17:59:19;10.85;;;2.45;;
26512;SDS011;14186;53.822;10.152;2023-01-04T18:04:19;14.70;;;2.67;;
26512;SDS011;14186;53.822;10.152;2023-01-04T18:09:20;21.23;;;3.10;;
26512;SDS011;14186;53.822;10.152;2023-01-04T18:14:21;24.30;;;3.78;;
26512;SDS011;14186;53.822;10.152;2023-01-04T18:19:21;14.38;;;2.72;;
26512;SDS011;14186;53.822;10.152;2023-01-04T18:24:23;15.45;;;2.05;;
26512;SDS011;14186;53.822;10.152;2023-01-04T18:29:23;15.23;;;2.65;;
26512;SDS011;14186;53.822;10.152;2023-01-04T18:34:24;13.98;;;2.50;;
26512;SDS011;14186;53.822;10.152;2023-01-04T18:39:26;16.60;;;5.28;;
26512;SDS011;14186;53.822;10.152;2023-01-04T18:44:26;18.67;;;2.83;;
26512;SDS011;14186;53.822;10.152;2023-01-04T18:49:26;15.75;;;2.85;;
26512;SDS011;14186;53.822;10.152;2023-01-04T18:54:27;10.00;;;3.10;;
26512;SDS011;14186;53.822;10.152;2023-01-04T18:59:28;9.70;;;2.60;;
26512;SDS011;14186;53.822;10.152;2023-01-04T19:04:29;18.08;;;4.15;;
26512;SDS011;14186;53.822;10.152;2023-01-04T19:09:31;18.33;;;3.75;;
26512;SDS011;14186;53.822;10.152;2023-01-04T19:14:31;17.42;;;2.90;;
26512;SDS011;14186;53.822;10.152;2023-01-04T19:19:32;18.85;;;2.28;;
26512;SDS011;14186;53.822;10.152;2023-01-04T19:24:33;17.67;;;3.60;;
26512;SDS011;14186;53.822;10.152;2023-01-04T19:29:34;14.32;;;2.85;;
26512;SDS011;14186;53.822;10.152;2023-01-04T19:34:34;15.30;;;2.60;;
26512;SDS011;14186;53.822;10.152;2023-01-04T19:39:36;11.23;;;2.42;;
26512;SDS011;14186;53.822;10.152;2023-01-04T19:44:36;12.68;;;2.78;;
26512;SDS011;14186;53.822;10.152;2023-01-04T19:49:36;15.52;;;2.72;;
26512;SDS011;14186;53.822;10.152;2023-01-04T19:54:38;15.70;;;2.13;;
26512;SDS011;14186;53.822;10.152;2023-01-04T19:59:38;7.68;;;1.40;;
26512;SDS011;14186;53.822;10.152;2023-01-04T20:04:38;11.18;;;2.60;;
26512;SDS011;14186;53.822;10.152;2023-01-04T20:09:40;14.80;;;2.45;;
26512;SDS011;14186;53.822;10.152;2023-01-04T20:14:40;14.18;;;2.65;;
26512;SDS011;14186;53.822;10.152;2023-01-04T20:19:41;14.13;;;1.90;;
26512;SDS011;14186;53.822;10.152;2023-01-04T20:24:42;13.60;;;2.22;;
26512;SDS011;14186;53.822;10.152;2023-01-04T20:29:42;18.30;;;3.13;;
26512;SDS011;14186;53.822;10.152;2023-01-04T20:34:43;15.57;;;2.58;;
26512;SDS011;14186;53.822;10.152;2023-01-04T20:39:44;14.65;;;2.90;;
26512;SDS011;14186;53.822;10.152;2023-01-04T20:44:44;11.27;;;2.90;;
26512;SDS011;14186;53.822;10.152;2023-01-04T20:49:45;14.23;;;2.17;;
26512;SDS011;14186;53.822;10.152;2023-01-04T20:54:48;19.05;;;2.75;;
26512;SDS011;14186;53.822;10.152;2023-01-04T20:59:48;13.57;;;2.88;;
26512;SDS011;14186;53.822;10.152;2023-01-04T21:04:48;16.50;;;3.08;;
26512;SDS011;14186;53.822;10.152;2023-01-04T21:09:50;17.83;;;2.08;;
26512;SDS011;14186;53.822;10.152;2023-01-04T21:14:50;16.33;;;2.50;;
26512;SDS011;14186;53.822;10.152;2023-01-04T21:19:50;14.73;;;3.33;;
26512;SDS011;14186;53.822;10.152;2023-01-04T21:24:52;21.65;;;3.40;;
26512;SDS011;14186;53.822;10.152;2023-01-04T21:29:52;22.80;;;3.47;;
26512;SDS011;14186;53.822;10.152;2023-01-04T21:34:52;29.98;;;5.03;;
26512;SDS011;14186;53.822;10.152;2023-01-04T21:39:53;17.80;;;3.95;;
26512;SDS011;14186;53.822;10.152;2023-01-04T21:44:54;16.50;;;2.72;;
26512;SDS011;14186;53.822;10.152;2023-01-04T21:49:54;19.75;;;2.55;;
26512;SDS011;14186;53.822;10.152;2023-01-04T21:54:55;17.38;;;2.92;;
26512;SDS011;14186;53.822;10.152;2023-01-04T21:59:55;21.35;;;5.18;;
26512;SDS011;14186;53.822;10.152;2023-01-04T22:04:56;17.95;;;3.10;;
26512;SDS011;14186;53.822;10.152;2023-01-04T22:09:57;24.05;;;4.60;;
26512;SDS011;14186;53.822;10.152;2023-01-04T22:14:57;18.58;;;3.78;;
26512;SDS011;14186;53.822;10.152;2023-01-04T22:19:58;23.00;;;3.47;;
26512;SDS011;14186;53.822;10.152;2023-01-04T22:24:59;21.05;;;4.22;;
26512;SDS011;14186;53.822;10.152;2023-01-04T22:29:59;21.65;;;3.22;;
26512;SDS011;14186;53.822;10.152;2023-01-04T22:34:59;26.85;;;5.20;;
26512;SDS011;14186;53.822;10.152;2023-01-04T22:40:01;19.30;;;2.88;;
26512;SDS011;14186;53.822;10.152;2023-01-04T22:45:01;19.27;;;3.22;;
26512;SDS011;14186;53.822;10.152;2023-01-04T22:50:03;17.48;;;3.97;;
26512;SDS011;14186;53.822;10.152;2023-01-04T22:55:05;27.10;;;4.03;;
26512;SDS011;14186;53.822;10.152;2023-01-04T23:00:06;11.45;;;2.10;;
26512;SDS011;14186;53.822;10.152;2023-01-04T23:05:06;16.73;;;2.63;;
26512;SDS011;14186;53.822;10.152;2023-01-04T23:10:08;17.25;;;2.53;;
26512;SDS011;14186;53.822;10.152;2023-01-04T23:15:08;20.58;;;3.00;;
26512;SDS011;14186;53.822;10.152;2023-01-04T23:20:09;17.58;;;4.15;;
26512;SDS011;14186;53.822;10.152;2023-01-04T23:25:11;21.98;;;3.22;;
26512;SDS011;14186;53.822;10.152;2023-01-04T23:30:12;19.65;;;3.47;;
26512;SDS011;14186;53.822;10.152;2023-01-04T23:35:12;14.45;;;3.70;;
26512;SDS011;14186;53.822;10.152;2023-01-04T23:40:14;20.92;;;2.10;;
26512;SDS011;14186;53.822;10.152;2023-01-04T23:45:14;18.75;;;3.40;;
26512;SDS011;14186;53.822;10.152;2023-01-04T23:50:14;16.23;;;2.80;;
26512;SDS011;14186;53.822;10.152;2023-01-04T23:55:16;18.27;;;2.40;;
